createdAt,value
2023-06-11T00:02:25.781Z,101232.25
2023-06-11T00:07:29.434Z,101235.97
2023-06-11T00:12:33.938Z,101150.25
2023-06-11T00:17:39.824Z,101238.16
2023-06-11T00:22:44.424Z,101234.06
2023-06-11T00:27:47.261Z,101235.25
2023-06-11T00:32:51.918Z,101185.50
2023-06-11T00:37:56.174Z,101226.31
2023-06-11T00:42:59.042Z,101149.03
2023-06-11T00:48:03.438Z,101220.50
2023-06-11T00:53:06.434Z,101189.38
2023-06-11T00:58:17.592Z,101177.03
2023-06-11T01:03:28.182Z,101213.19
2023-06-11T01:08:34.223Z,101217.13
2023-06-11T01:13:38.589Z,101222.84
2023-06-11T01:18:50.056Z,101200.28
2023-06-11T01:24:01.462Z,101216.69
2023-06-11T01:29:10.452Z,101222.31
2023-06-11T01:34:15.470Z,101160.38
2023-06-11T01:39:20.204Z,101227.59
2023-06-11T01:44:40.755Z,101217.22
2023-06-11T01:49:43.967Z,101169.91
2023-06-11T01:54:46.773Z,101207.78
2023-06-11T01:59:51.529Z,101205.41
2023-06-11T02:04:54.319Z,101236.28
2023-06-11T02:09:57.092Z,101238.63
2023-06-11T02:15:01.245Z,101234.06
2023-06-11T02:20:07.077Z,101231.59
2023-06-11T02:25:12.819Z,101183.09
2023-06-11T02:30:17.936Z,101229.09
2023-06-11T02:35:20.721Z,101242.78
2023-06-11T02:40:24.269Z,101185.59
2023-06-11T02:45:28.428Z,101239.38
2023-06-11T02:50:31.233Z,101238.09
2023-06-11T02:55:58.305Z,101247.69
2023-06-11T03:01:02.651Z,101220.84
2023-06-11T03:06:05.562Z,101233.44
2023-06-11T03:11:09.162Z,101252.19
2023-06-11T03:16:16.761Z,101251.03
2023-06-11T03:21:19.869Z,101205.88
2023-06-11T03:26:22.691Z,101233.06
2023-06-11T03:31:28.209Z,101259.66
2023-06-11T03:36:31.850Z,101259.19
2023-06-11T03:41:38.498Z,101222.00
2023-06-11T03:46:43.573Z,101248.91
2023-06-11T03:51:49.706Z,101273.28
2023-06-11T03:56:52.715Z,101254.97
2023-06-11T04:01:57.026Z,101264.47
2023-06-11T04:07:03.125Z,101258.06
2023-06-11T04:12:11.009Z,101262.81
2023-06-11T04:17:36.150Z,101261.06
2023-06-11T04:23:00.383Z,101216.84
2023-06-11T04:28:24.287Z,101261.09
2023-06-11T04:33:48.966Z,101275.78
2023-06-11T04:39:12.026Z,101267.28
2023-06-11T04:44:37.586Z,101248.44
2023-06-11T04:50:04.370Z,101261.22
2023-06-11T04:55:28.158Z,101239.81
2023-06-11T05:00:38.916Z,101242.72
2023-06-11T05:05:43.693Z,101264.56
2023-06-11T05:10:49.077Z,101221.00
2023-06-11T05:15:59.033Z,101145.56
2023-06-11T05:21:33.261Z,100944.41
2023-06-11T05:26:46.950Z,101290.16
2023-06-11T05:31:50.313Z,101244.84
2023-06-11T05:36:54.985Z,101282.03
2023-06-11T05:42:00.298Z,101274.31
2023-06-11T05:47:10.128Z,101287.31
2023-06-11T05:52:22.432Z,101229.75
2023-06-11T05:57:28.666Z,101293.44
2023-06-11T06:02:36.248Z,101258.19
2023-06-11T06:07:40.653Z,101098.56
2023-06-11T06:12:43.505Z,101241.16
2023-06-11T06:17:48.083Z,101260.25
2023-06-11T06:22:59.396Z,101254.84
2023-06-11T06:28:02.684Z,101249.63
2023-06-11T06:33:06.583Z,101293.66
2023-06-11T06:38:11.319Z,101300.19
2023-06-11T06:43:16.230Z,101303.00
2023-06-11T06:48:20.611Z,101266.56
2023-06-11T06:53:24.908Z,101313.72
2023-06-11T06:58:28.117Z,101315.72
2023-06-11T07:03:31.275Z,101317.34
2023-06-11T07:08:36.374Z,101265.03
2023-06-11T07:13:39.679Z,101264.16
2023-06-11T07:18:43.658Z,101207.47
2023-06-11T07:23:47.814Z,101269.34
2023-06-11T07:28:51.650Z,101257.78
2023-06-11T07:33:55.195Z,101327.03
2023-06-11T07:39:02.199Z,101278.00
2023-06-11T07:44:05.342Z,101336.84
2023-06-11T07:49:09.637Z,101332.66
2023-06-11T07:54:15.564Z,101289.16
2023-06-11T07:59:18.759Z,101287.03
2023-06-11T08:04:21.876Z,101329.91
2023-06-11T08:09:28.329Z,101324.63
2023-06-11T08:14:34.228Z,101276.44
2023-06-11T08:19:37.056Z,101333.63
2023-06-11T08:24:41.728Z,101212.28
2023-06-11T08:29:49.911Z,101316.03
2023-06-11T08:34:53.669Z,101282.84
2023-06-11T08:39:57.806Z,101324.47
2023-06-11T08:45:00.847Z,101257.16
2023-06-11T08:50:05.326Z,101179.44
2023-06-11T08:55:10.934Z,101324.13
2023-06-11T09:00:15.893Z,101146.63
2023-06-11T09:05:18.914Z,101198.13
2023-06-11T09:10:24.080Z,101190.31
2023-06-11T09:15:33.273Z,101211.59
2023-06-11T09:20:36.936Z,101283.88
2023-06-11T09:25:42.662Z,101331.47
2023-06-11T09:30:54.960Z,101309.41
2023-06-11T09:35:57.782Z,101228.94
2023-06-11T09:41:06.157Z,101280.53
2023-06-11T09:46:10.118Z,101290.00
2023-06-11T09:51:24.848Z,101009.78
2023-06-11T09:56:30.080Z,101326.28
2023-06-11T10:01:34.575Z,101236.34
2023-06-11T10:06:42.107Z,101323.44
2023-06-11T10:11:47.689Z,101281.03
2023-06-11T10:16:52.025Z,101323.69
2023-06-11T10:22:03.370Z,101281.25
2023-06-11T10:27:09.859Z,101312.06
2023-06-11T10:32:17.369Z,101319.84
2023-06-11T10:37:30.410Z,101290.25
2023-06-11T10:42:39.359Z,101311.19
2023-06-11T10:47:44.427Z,101316.00
2023-06-11T10:52:51.598Z,101314.44
2023-06-11T10:57:56.284Z,101314.06
2023-06-11T11:03:00.729Z,101270.34
2023-06-11T11:08:03.875Z,101308.59
2023-06-11T11:13:07.954Z,101293.25
2023-06-11T11:18:10.827Z,101218.16
2023-06-11T11:23:13.738Z,101291.63
2023-06-11T11:28:18.913Z,101306.81
2023-06-11T11:33:22.151Z,101272.72
2023-06-11T11:38:25.121Z,101296.97
2023-06-11T11:43:40.319Z,101296.19
2023-06-11T11:48:44.327Z,101222.34
2023-06-11T11:53:48.283Z,101287.09
2023-06-11T11:58:53.707Z,101273.03
2023-06-11T12:04:02.029Z,101265.94
2023-06-11T12:09:06.617Z,101286.75
2023-06-11T12:14:11.032Z,101193.16
2023-06-11T12:19:23.212Z,101284.59
2023-06-11T12:24:27.978Z,101276.16
2023-06-11T12:29:32.621Z,101273.16
2023-06-11T12:34:35.372Z,101241.81
2023-06-11T12:39:38.352Z,101261.59
2023-06-11T12:44:43.482Z,101257.28
2023-06-11T12:49:46.621Z,101254.97
2023-06-11T12:54:49.415Z,101263.78
2023-06-11T12:59:53.524Z,101265.97
2023-06-11T13:04:58.483Z,101254.97
2023-06-11T13:10:01.756Z,101247.41
2023-06-11T13:15:08.468Z,101254.44
2023-06-11T13:20:12.432Z,101228.03
2023-06-11T13:25:16.758Z,101245.69
2023-06-11T13:30:21.376Z,101225.34
2023-06-11T13:35:24.303Z,101227.75
2023-06-11T13:40:27.157Z,101223.38
2023-06-11T13:45:31.354Z,101235.69
2023-06-11T13:50:34.594Z,101244.97
2023-06-11T13:55:37.534Z,101232.06
2023-06-11T14:00:42.292Z,101238.41
2023-06-11T14:05:45.143Z,101227.91
2023-06-11T14:10:54.008Z,101238.34
2023-06-11T14:15:58.803Z,101234.69
2023-06-11T14:21:01.687Z,101234.78
2023-06-11T14:26:04.448Z,101215.88
2023-06-11T14:31:08.492Z,101212.44
2023-06-11T14:36:11.515Z,101203.09
2023-06-11T14:41:14.460Z,101181.13
2023-06-11T14:46:18.952Z,101184.56
2023-06-11T14:51:24.082Z,101172.91
2023-06-11T14:56:28.186Z,101171.47
2023-06-11T15:01:32.640Z,101174.44
2023-06-11T15:06:35.520Z,101142.84
2023-06-11T15:11:38.406Z,101166.88
2023-06-11T15:16:45.363Z,101156.34
2023-06-11T15:21:48.363Z,101158.97
2023-06-11T15:26:51.137Z,101109.69
2023-06-11T15:31:57.970Z,101113.63
2023-06-11T15:37:01.144Z,101139.75
2023-06-11T15:42:04.308Z,101148.44
2023-06-11T15:47:08.656Z,101128.88
2023-06-11T15:52:11.355Z,101144.91
2023-06-11T15:57:14.024Z,101141.13
2023-06-11T16:02:18.290Z,101140.72
2023-06-11T16:07:23.947Z,101138.66
2023-06-11T16:12:26.636Z,101150.59
2023-06-11T16:17:32.207Z,101142.25
2023-06-11T16:22:41.153Z,101127.94
2023-06-11T16:27:45.550Z,101087.72
2023-06-11T16:32:49.591Z,101105.31
2023-06-11T16:37:52.327Z,101103.47
2023-06-11T16:42:55.207Z,101119.25
2023-06-11T16:48:01.429Z,101125.16
2023-06-11T16:53:09.802Z,101114.06
2023-06-11T16:58:12.646Z,101124.38
2023-06-11T17:03:20.054Z,101118.09
2023-06-11T17:08:24.945Z,101125.63
2023-06-11T17:13:28.102Z,101135.13
2023-06-11T17:18:37.223Z,101094.88
2023-06-11T17:29:20.032Z,101132.81
2023-06-11T17:34:45.874Z,101131.56
2023-06-11T17:39:57.183Z,101100.53
2023-06-11T17:44:59.995Z,101142.63
2023-06-11T17:50:07.452Z,100963.88
2023-06-11T17:55:14.538Z,101143.03
2023-06-11T18:00:18.738Z,101081.38
2023-06-11T18:05:25.217Z,101139.47
2023-06-11T18:10:28.189Z,101130.22
2023-06-11T18:15:34.557Z,101142.34
2023-06-11T18:20:39.635Z,101127.22
2023-06-11T18:25:42.335Z,101104.94
2023-06-11T18:30:45.476Z,101147.91
2023-06-11T18:35:49.704Z,101146.41
2023-06-11T18:40:52.613Z,101080.03
2023-06-11T18:45:55.956Z,101165.59
2023-06-11T21:56:10.488Z,101236.41
2023-06-11T22:01:13.184Z,101236.78
2023-06-11T22:06:15.966Z,101236.91
2023-06-11T22:11:20.375Z,101239.13
2023-06-11T22:16:23.864Z,101235.31
2023-06-11T22:21:26.855Z,101242.22
2023-06-11T22:26:31.412Z,101239.56
2023-06-11T22:31:34.731Z,101240.50
2023-06-11T22:36:37.611Z,101245.50
2023-06-11T22:41:41.875Z,101250.50
2023-06-11T22:46:44.571Z,101251.94
2023-06-11T22:51:48.101Z,101263.50
2023-06-11T22:56:52.848Z,101237.31
2023-06-11T23:01:55.801Z,101270.38
2023-06-11T23:06:58.986Z,101265.28
2023-06-11T23:12:03.217Z,101264.22
2023-06-11T23:17:10.441Z,101272.69
2023-06-11T23:22:13.379Z,101262.94
2023-06-11T23:27:18.488Z,101264.97
2023-06-11T23:32:21.281Z,101278.16
2023-06-11T23:37:24.077Z,101265.16
2023-06-11T23:42:28.072Z,101250.41
2023-06-11T23:47:32.482Z,101260.22
2023-06-11T23:52:35.293Z,101261.88
2023-06-11T23:57:40.341Z,101260.19
